createdAt,value
2022-10-22T00:00:43.665Z,70191.94
2022-10-22T00:03:11.242Z,70195.75
2022-10-22T00:05:38.637Z,70259.56
2022-10-22T00:08:06.938Z,70212.78
2022-10-22T00:10:34.333Z,70203.09
2022-10-22T00:13:01.652Z,70194.88
2022-10-22T00:15:28.972Z,70203.06
2022-10-22T00:17:56.365Z,70190.47
2022-10-22T00:20:23.740Z,70186.94
2022-10-22T00:25:19.305Z,70216.59
2022-10-22T00:27:46.662Z,70193.06
2022-10-22T00:30:14.090Z,70220.44
2022-10-22T00:32:42.021Z,70200.75
2022-10-22T00:35:09.917Z,70191.03
2022-10-22T00:37:37.458Z,70212.78
2022-10-22T00:40:05.939Z,70248.97
2022-10-22T00:42:33.536Z,70198.72
2022-10-22T00:45:09.405Z,70204.00
2022-10-22T00:47:59.201Z,70201.34
2022-10-22T00:50:41.617Z,70184.38
2022-10-22T00:53:12.632Z,70175.53
2022-10-22T00:55:41.513Z,70167.88
2022-10-22T00:58:09.548Z,70135.31
2022-10-22T01:00:37.135Z,70195.84
2022-10-22T01:03:05.171Z,70229.88
2022-10-22T01:05:39.774Z,70210.25
2022-10-22T01:08:13.149Z,70169.69
2022-10-22T01:10:50.351Z,70206.09
2022-10-22T01:13:36.641Z,70178.22
2022-10-22T01:16:33.410Z,70193.81
2022-10-22T01:19:28.362Z,70201.44
2022-10-22T01:22:06.340Z,70194.31
2022-10-22T01:24:53.256Z,70171.69
2022-10-22T01:27:38.191Z,70201.41
2022-10-22T01:30:08.088Z,70231.34
2022-10-22T01:32:46.506Z,70228.97
2022-10-22T01:35:19.130Z,70203.13
2022-10-22T01:37:54.353Z,70183.13
2022-10-22T01:40:23.928Z,70208.13
2022-10-22T01:43:03.860Z,70179.03
2022-10-22T01:45:36.029Z,70212.78
2022-10-22T01:48:19.135Z,70194.84
2022-10-22T01:50:58.565Z,70218.94
2022-10-22T01:53:37.487Z,70256.88
2022-10-22T01:56:11.085Z,70171.31
2022-10-22T01:58:42.118Z,70237.47
2022-10-22T02:01:32.753Z,70225.38
2022-10-22T02:04:16.866Z,70235.38
2022-10-22T02:06:47.798Z,70214.81
2022-10-22T02:09:18.434Z,70201.25
2022-10-22T02:11:47.088Z,70223.59
2022-10-22T02:14:18.385Z,70246.22
2022-10-22T02:16:48.705Z,70212.41
2022-10-22T02:19:19.144Z,70213.28
2022-10-22T02:21:46.697Z,70231.25
2022-10-22T02:24:14.227Z,70221.78
2022-10-22T02:26:54.301Z,70221.53
2022-10-22T02:29:39.181Z,70230.66
2022-10-22T02:32:09.997Z,70284.78
2022-10-22T02:34:37.527Z,70217.09
2022-10-22T02:37:06.315Z,70249.47
2022-10-22T02:39:35.944Z,70207.72
2022-10-22T02:42:03.823Z,70255.94
2022-10-22T02:44:31.475Z,70214.78
2022-10-22T02:46:59.621Z,70225.38
2022-10-22T02:49:27.058Z,70244.19
2022-10-22T02:51:54.326Z,70244.78
2022-10-22T02:54:21.840Z,70224.22
2022-10-22T02:56:49.213Z,70234.53
2022-10-22T02:59:16.570Z,70214.53
2022-10-22T03:01:43.885Z,70233.06
2022-10-22T03:04:11.348Z,70202.78
2022-10-22T03:06:38.685Z,70234.53
2022-10-22T03:09:06.008Z,70254.22
2022-10-22T03:11:33.392Z,70218.34
2022-10-22T03:14:00.841Z,70225.38
2022-10-22T03:16:28.155Z,70209.50
2022-10-22T03:18:55.819Z,70235.38
2022-10-22T03:21:29.742Z,70214.78
2022-10-22T03:23:58.160Z,70239.44
2022-10-22T03:26:26.137Z,70243.88
2022-10-22T03:28:54.912Z,70288.78
2022-10-22T03:31:22.317Z,70276.16
2022-10-22T03:33:49.626Z,70235.91
2022-10-22T03:36:16.942Z,70241.22
2022-10-22T03:38:44.436Z,70235.94
2022-10-22T03:41:11.966Z,70241.22
2022-10-22T03:43:40.976Z,70244.19
2022-10-22T03:46:08.609Z,70248.00
2022-10-22T03:48:35.911Z,70250.06
2022-10-22T03:51:03.325Z,70250.97
2022-10-22T03:53:30.699Z,70230.06
2022-10-22T03:55:57.994Z,70228.31
2022-10-22T03:58:25.591Z,70259.44
2022-10-22T04:00:52.958Z,70216.81
2022-10-22T04:03:20.686Z,70244.75
2022-10-22T04:05:47.978Z,70256.53
2022-10-22T04:08:15.490Z,70239.75
2022-10-22T04:10:42.770Z,70248.28
2022-10-22T04:13:10.132Z,70222.41
2022-10-22T04:15:37.482Z,70234.16
2022-10-22T04:18:04.829Z,70257.69
2022-10-22T04:20:32.163Z,70262.69
2022-10-22T04:22:59.507Z,70219.47
2022-10-22T04:25:26.846Z,70256.78
2022-10-22T04:27:54.166Z,70236.81
2022-10-22T04:30:21.474Z,70226.28
2022-10-22T04:32:48.869Z,70259.47
2022-10-22T04:35:16.363Z,70256.81
2022-10-22T04:37:43.713Z,70249.47
2022-10-22T04:40:11.794Z,70245.34
2022-10-22T04:42:39.243Z,70243.03
2022-10-22T04:45:06.942Z,70225.66
2022-10-22T04:47:34.253Z,70246.53
2022-10-22T04:50:01.561Z,70249.44
2022-10-22T04:52:31.798Z,70235.94
2022-10-22T04:54:59.121Z,70242.38
2022-10-22T04:57:31.146Z,70224.78
2022-10-22T04:59:58.697Z,70244.19
2022-10-22T05:02:26.177Z,70234.78
2022-10-22T05:04:53.680Z,70206.00
2022-10-22T05:07:21.096Z,70228.94
2022-10-22T05:09:48.450Z,70202.47
2022-10-22T05:12:15.736Z,70280.66
2022-10-22T05:14:44.769Z,70179.13
2022-10-22T05:17:12.545Z,70232.47
2022-10-22T05:19:39.832Z,70222.16
2022-10-22T05:22:07.103Z,70261.78
2022-10-22T05:24:37.119Z,70242.38
2022-10-22T05:27:04.496Z,70217.72
2022-10-22T05:29:31.895Z,70208.56
2022-10-22T05:31:59.329Z,70225.34
2022-10-22T05:34:26.605Z,70205.06
2022-10-22T05:36:54.134Z,70239.78
2022-10-22T05:39:21.704Z,70240.66
2022-10-22T05:41:49.116Z,70224.19
2022-10-22T05:44:16.484Z,70248.84
2022-10-22T05:46:43.880Z,70227.16
2022-10-22T05:49:15.545Z,70222.16
2022-10-22T05:51:43.029Z,70246.22
2022-10-22T05:54:19.422Z,70221.81
2022-10-22T05:56:46.957Z,70232.97
2022-10-22T05:59:14.373Z,70232.69
2022-10-22T06:01:42.254Z,70258.25
2022-10-22T06:04:12.995Z,70259.16
2022-10-22T06:06:54.326Z,70214.75
2022-10-22T06:09:40.167Z,70214.75
2022-10-22T06:12:10.789Z,70236.47
2022-10-22T06:14:38.160Z,70239.13
2022-10-22T06:17:05.455Z,70249.13
2022-10-22T06:19:32.773Z,70228.84
2022-10-22T06:22:00.151Z,70276.47
2022-10-22T06:24:27.505Z,70235.59
2022-10-22T06:26:54.839Z,70263.53
2022-10-22T06:29:22.279Z,70263.84
2022-10-22T06:31:50.835Z,70267.63
2022-10-22T06:34:21.403Z,70232.34
2022-10-22T06:36:48.744Z,70286.44
2022-10-22T06:39:18.254Z,70257.63
2022-10-22T06:41:45.837Z,70234.09
2022-10-22T06:44:18.849Z,70233.53
2022-10-22T06:46:49.089Z,70245.59
2022-10-22T06:49:17.150Z,70221.78
2022-10-22T06:51:44.741Z,70219.41
2022-10-22T06:54:12.616Z,70256.44
2022-10-22T06:56:39.925Z,70231.78
2022-10-22T06:59:07.273Z,70255.28
2022-10-22T07:01:36.306Z,70267.03
2022-10-22T07:04:04.170Z,70243.84
2022-10-22T07:06:32.006Z,70245.59
2022-10-22T07:09:00.733Z,70273.81
2022-10-22T07:11:32.805Z,70287.59
2022-10-22T07:14:00.974Z,70267.03
2022-10-22T07:16:31.245Z,70290.56
2022-10-22T07:19:00.686Z,70246.19
2022-10-22T07:21:28.126Z,70253.81
2022-10-22T07:23:56.556Z,70254.69
2022-10-22T07:26:30.618Z,70288.16
2022-10-22T07:28:58.894Z,70243.16
2022-10-22T07:31:26.426Z,70287.00
2022-10-22T07:33:53.746Z,70302.56
2022-10-22T07:36:21.174Z,70266.19
2022-10-22T07:38:53.599Z,70292.66
2022-10-22T07:41:21.279Z,70278.03
2022-10-22T07:43:48.555Z,70288.34
2022-10-22T07:46:15.877Z,70235.75
2022-10-22T07:48:43.375Z,70277.22
2022-10-22T07:51:10.763Z,70282.19
2022-10-22T07:53:38.404Z,70267.75
2022-10-22T07:56:06.545Z,70283.03
2022-10-22T07:58:34.456Z,70297.47
2022-10-22T08:01:05.684Z,70328.31
2022-10-22T08:03:33.697Z,70315.97
2022-10-22T08:06:01.703Z,70368.91
2022-10-22T08:08:30.834Z,70327.75
2022-10-22T08:11:01.028Z,70382.13
2022-10-22T08:13:30.631Z,70385.34
2022-10-22T08:16:00.455Z,70363.94
2022-10-22T08:18:28.680Z,70393.03
2022-10-22T08:20:56.722Z,70416.50
2022-10-22T08:23:26.124Z,70472.66
2022-10-22T08:25:56.606Z,70460.59
2022-10-22T08:28:23.968Z,70508.19
2022-10-22T08:30:51.676Z,70529.06
2022-10-22T08:33:19.330Z,70524.66
2022-10-22T08:35:51.219Z,70589.34
2022-10-22T08:38:19.819Z,70606.69
2022-10-22T08:41:00.736Z,70595.22
2022-10-22T08:43:45.960Z,70605.81
2022-10-22T08:46:32.241Z,70648.16
2022-10-22T08:49:02.816Z,70694.06
2022-10-22T08:51:36.931Z,70739.38
2022-10-22T08:54:36.464Z,70777.94
2022-10-22T08:57:22.192Z,70792.38
2022-10-22T08:59:52.354Z,70871.28
2022-10-22T09:02:40.985Z,70866.28
2022-10-22T09:05:12.405Z,70913.72
2022-10-22T09:07:43.766Z,70953.47
2022-10-22T09:10:13.495Z,70964.69
2022-10-22T09:12:41.255Z,70937.59
2022-10-22T09:15:14.961Z,70964.41
2022-10-22T09:18:21.895Z,71056.34
2022-10-22T09:20:59.474Z,71038.38
2022-10-22T09:23:39.371Z,70999.78
2022-10-22T09:26:15.727Z,71024.81
2022-10-22T09:28:43.690Z,71028.34
2022-10-22T09:31:13.237Z,70985.69
2022-10-22T09:33:42.622Z,71089.50
2022-10-22T09:36:16.708Z,71137.88
2022-10-22T09:38:53.333Z,71190.44
2022-10-22T09:41:24.087Z,71230.00
2022-10-22T09:43:51.649Z,71254.53
2022-10-22T09:46:22.215Z,71306.88
2022-10-22T09:48:58.683Z,71386.72
2022-10-22T09:51:36.443Z,71572.41
2022-10-22T09:54:16.715Z,71612.16
2022-10-22T09:56:57.003Z,71820.31
2022-10-22T09:59:32.691Z,71677.94
2022-10-22T10:02:19.983Z,71485.31
2022-10-22T10:05:03.779Z,71351.38
2022-10-22T10:07:33.874Z,71354.66
2022-10-22T10:10:01.800Z,71224.91
2022-10-22T10:12:49.778Z,71011.16
2022-10-22T10:15:23.373Z,70954.13
2022-10-22T10:18:11.549Z,71141.47
2022-10-22T10:21:08.678Z,71278.84
2022-10-22T10:24:14.374Z,71403.03
2022-10-22T10:27:12.453Z,71462.06
2022-10-22T10:30:09.729Z,71660.09
2022-10-22T10:32:43.507Z,71549.22
2022-10-22T10:35:55.459Z,71572.94
2022-10-22T10:38:53.297Z,71751.22
2022-10-22T10:41:56.180Z,72018.34
2022-10-22T10:44:35.386Z,72158.91
2022-10-22T10:47:21.523Z,72297.56
2022-10-22T10:49:51.943Z,72229.78
2022-10-22T10:52:36.540Z,72100.22
2022-10-22T10:55:22.497Z,72036.13
2022-10-22T10:58:11.090Z,71956.59
2022-10-22T11:00:57.672Z,72210.66
2022-10-22T11:03:46.162Z,72281.97
2022-10-22T11:06:23.008Z,72560.97
2022-10-22T11:09:31.287Z,72707.53
2022-10-22T11:12:04.229Z,72492.25
2022-10-22T11:15:16.366Z,72120.13
2022-10-22T11:17:48.111Z,71870.81
2022-10-22T11:20:43.706Z,71633.34
2022-10-22T11:23:55.349Z,71568.03
2022-10-22T11:26:38.953Z,71444.03
2022-10-22T11:29:17.496Z,71444.03
2022-10-22T11:31:46.091Z,71198.84
2022-10-22T11:34:33.093Z,71149.00
2022-10-22T11:37:04.195Z,71076.56
2022-10-22T11:39:40.970Z,71042.28
2022-10-22T11:42:18.169Z,71044.47
2022-10-22T11:44:59.713Z,70959.88
2022-10-22T11:47:31.862Z,70994.59
2022-10-22T11:50:47.148Z,70961.75
2022-10-22T11:53:14.484Z,71026.66
2022-10-22T11:55:55.412Z,70979.53
2022-10-22T11:58:39.213Z,70970.94
2022-10-22T12:01:09.418Z,70991.34
2022-10-22T12:03:48.854Z,70979.81
2022-10-22T12:06:20.739Z,70946.69
2022-10-22T12:08:54.378Z,70939.63
2022-10-22T12:11:44.872Z,70924.06
2022-10-22T12:14:29.574Z,70927.91
2022-10-22T12:17:02.692Z,70945.63
2022-10-22T12:19:44.530Z,70992.38
2022-10-22T12:22:27.500Z,71021.19
2022-10-22T12:25:01.001Z,71032.38
2022-10-22T12:27:37.316Z,71024.06
2022-10-22T12:30:21.231Z,71016.88
2022-10-22T12:32:51.192Z,71060.13
2022-10-22T12:35:21.808Z,71039.72
2022-10-22T12:37:57.154Z,71019.63
2022-10-22T12:40:30.112Z,71017.91
2022-10-22T12:43:02.999Z,71039.47
2022-10-22T12:45:34.156Z,71054.78
2022-10-22T12:48:04.398Z,71063.56
2022-10-22T12:50:38.174Z,71082.50
2022-10-22T12:53:24.627Z,71048.09
2022-10-22T12:55:54.758Z,71058.09
2022-10-22T12:58:27.025Z,71092.47
2022-10-22T13:01:02.172Z,71101.41
2022-10-22T13:03:38.733Z,71093.97
2022-10-22T13:06:23.828Z,71088.63
2022-10-22T13:09:00.478Z,71114.97
2022-10-22T13:11:39.799Z,71114.97
2022-10-22T13:14:21.371Z,71117.88
2022-10-22T13:17:07.375Z,71087.00
2022-10-22T13:19:45.755Z,71136.19
2022-10-22T13:22:35.474Z,71129.97
2022-10-22T13:25:20.648Z,71100.94
2022-10-22T13:27:49.158Z,71142.19
2022-10-22T13:30:27.937Z,71139.81
2022-10-22T13:32:59.481Z,71125.53
2022-10-22T13:35:30.178Z,71161.72
2022-10-22T13:37:57.607Z,71123.03
2022-10-22T13:40:25.058Z,71169.03
2022-10-22T13:42:52.388Z,71162.44
2022-10-22T13:45:20.031Z,71165.09
2022-10-22T13:47:53.921Z,71191.78
2022-10-22T13:50:21.913Z,71186.97
2022-10-22T13:52:56.338Z,71194.13
2022-10-22T13:55:29.233Z,71193.72
2022-10-22T13:58:13.087Z,71240.88
2022-10-22T14:00:43.268Z,71243.75
2022-10-22T14:03:17.104Z,71252.59
2022-10-22T14:05:46.832Z,71298.13
2022-10-22T14:08:17.215Z,71297.59
2022-10-22T14:10:45.019Z,71286.47
2022-10-22T14:13:13.989Z,71247.88
2022-10-22T14:15:42.911Z,71254.97
2022-10-22T14:18:15.815Z,71233.00
2022-10-22T14:20:43.651Z,71179.38
2022-10-22T14:23:18.999Z,71222.47
2022-10-22T14:25:46.593Z,71215.03
2022-10-22T14:28:14.323Z,71188.31
2022-10-22T14:30:42.026Z,71199.31
2022-10-22T14:33:20.520Z,71226.28
2022-10-22T14:35:51.220Z,71213.47
2022-10-22T14:38:18.751Z,71265.16
2022-10-22T14:40:46.862Z,71214.28
2022-10-22T14:43:18.667Z,71211.84
2022-10-22T14:45:46.028Z,71242.47
2022-10-22T14:48:13.723Z,71259.09
2022-10-22T14:50:41.033Z,71239.84
2022-10-22T14:53:08.498Z,71270.47
2022-10-22T14:55:35.906Z,71182.59
2022-10-22T14:58:03.408Z,71234.88
2022-10-22T15:00:30.827Z,71237.28
2022-10-22T15:03:03.317Z,71191.81
2022-10-22T15:05:31.745Z,71189.47
2022-10-22T15:07:59.399Z,71195.13
2022-10-22T15:10:27.357Z,71223.69
2022-10-22T15:12:54.830Z,71235.03
2022-10-22T15:15:23.214Z,71183.97
2022-10-22T15:17:51.417Z,71190.22
2022-10-22T15:20:18.797Z,71176.59
2022-10-22T15:22:46.098Z,71209.06
2022-10-22T15:25:14.069Z,71185.63
2022-10-22T15:27:41.578Z,71157.44
2022-10-22T15:30:09.401Z,71142.09
2022-10-22T15:32:36.851Z,71173.59
2022-10-22T15:35:06.062Z,71158.78
2022-10-22T15:37:33.567Z,71149.34
2022-10-22T15:40:01.022Z,71062.16
2022-10-22T15:42:28.349Z,71092.47
2022-10-22T15:44:59.724Z,71093.69
2022-10-22T15:47:29.586Z,71076.53
2022-10-22T15:49:57.214Z,71044.53
2022-10-22T15:52:24.622Z,71065.69
2022-10-22T15:54:52.280Z,71061.06
2022-10-22T15:57:19.662Z,71018.19
2022-10-22T15:59:47.239Z,70996.59
2022-10-22T16:02:16.163Z,71002.41
2022-10-22T16:04:43.608Z,70950.91
2022-10-22T16:07:11.342Z,70959.28
2022-10-22T16:09:38.761Z,70889.50
2022-10-22T16:12:06.466Z,70870.94
2022-10-22T16:14:33.920Z,70896.81
2022-10-22T16:17:01.738Z,70855.75
2022-10-22T16:19:29.457Z,70862.34
2022-10-22T16:21:57.210Z,70803.81
2022-10-22T16:24:24.586Z,70833.47
2022-10-22T16:26:53.223Z,70786.50
2022-10-22T16:29:20.645Z,70784.50
2022-10-22T16:31:47.995Z,70770.06
2022-10-22T16:34:15.376Z,70729.94
2022-10-22T16:36:44.210Z,70791.47
2022-10-22T16:39:11.897Z,70769.69
2022-10-22T16:41:39.370Z,70770.31
2022-10-22T16:44:08.668Z,70701.84
2022-10-22T16:46:39.475Z,70708.94
2022-10-22T16:49:07.793Z,70752.19
2022-10-22T16:51:36.221Z,70718.22
2022-10-22T16:54:06.796Z,70703.50
2022-10-22T16:56:37.611Z,70692.03
2022-10-22T16:59:04.942Z,70628.84
2022-10-22T17:01:35.679Z,70653.69
2022-10-22T17:04:05.486Z,70664.38
2022-10-22T17:06:32.991Z,70636.06
2022-10-22T17:09:00.616Z,70639.63
2022-10-22T17:11:30.292Z,70632.56
2022-10-22T17:13:57.778Z,70629.63
2022-10-22T17:16:25.506Z,70623.16
2022-10-22T17:18:54.871Z,70655.34
2022-10-22T17:21:23.565Z,70652.13
2022-10-22T17:23:57.979Z,70617.66
2022-10-22T17:26:26.978Z,70616.16
2022-10-22T17:28:55.123Z,70611.50
2022-10-22T17:31:25.222Z,70629.81
2022-10-22T17:33:55.140Z,70626.28
2022-10-22T17:36:24.364Z,70588.53
2022-10-22T17:38:54.804Z,70553.78
2022-10-22T17:41:30.835Z,70579.78
2022-10-22T17:44:01.257Z,70596.03
2022-10-22T17:46:30.298Z,70529.09
2022-10-22T17:49:00.552Z,70583.72
2022-10-22T17:51:29.665Z,70556.31
2022-10-22T17:53:57.270Z,70533.91
2022-10-22T17:56:27.732Z,70565.78
2022-10-22T17:58:55.969Z,70597.06
2022-10-22T18:01:27.900Z,70545.19
2022-10-22T18:03:59.747Z,70506.88
2022-10-22T18:06:28.044Z,70553.78
2022-10-22T18:08:55.622Z,70523.47
2022-10-22T18:11:25.452Z,70537.66
2022-10-22T18:13:57.575Z,70561.84
2022-10-22T18:16:26.026Z,70477.91
2022-10-22T18:18:55.518Z,70493.81
2022-10-22T18:21:24.778Z,70501.47
2022-10-22T18:23:52.689Z,70451.38
2022-10-22T18:26:24.270Z,70512.13
2022-10-22T18:28:54.819Z,70460.34
2022-10-22T18:31:24.079Z,70471.81
2022-10-22T18:33:51.986Z,70467.72
2022-10-22T18:36:22.048Z,70448.31
2022-10-22T18:39:00.793Z,70440.97
2022-10-22T18:41:29.712Z,70438.91
2022-10-22T18:43:59.373Z,70473.69
2022-10-22T18:46:27.838Z,70430.69
2022-10-22T18:48:58.855Z,70456.31
2022-10-22T18:51:30.100Z,70445.44
2022-10-22T18:54:05.131Z,70477.25
2022-10-22T18:56:40.664Z,70440.44
2022-10-22T18:59:13.375Z,70480.19
2022-10-22T19:01:40.742Z,70451.34
2022-10-22T19:04:08.032Z,70355.63
2022-10-22T19:06:37.123Z,70452.59
2022-10-22T19:09:05.430Z,70425.84
2022-10-22T19:11:33.144Z,70465.56
2022-10-22T19:14:00.437Z,70394.25
2022-10-22T19:16:28.655Z,70416.72
2022-10-22T19:19:04.958Z,70424.69
2022-10-22T19:21:33.369Z,70451.50
2022-10-22T19:24:01.405Z,70431.47
2022-10-22T19:26:30.220Z,70415.88
2022-10-22T19:28:58.771Z,70407.06
2022-10-22T19:31:27.851Z,70400.88
2022-10-22T19:33:55.721Z,70393.53
2022-10-22T19:36:25.253Z,70402.69
2022-10-22T19:38:53.345Z,70404.47
2022-10-22T19:45:41.274Z,70411.56
2022-10-22T19:48:08.616Z,70412.09
2022-10-22T19:50:36.060Z,70407.97
2022-10-22T19:53:03.530Z,70421.50
2022-10-22T19:55:30.993Z,70416.78
2022-10-22T19:57:58.350Z,70441.50
2022-10-22T20:00:25.806Z,70402.06
2022-10-22T20:02:53.235Z,70449.72
2022-10-22T20:05:20.699Z,70397.00
2022-10-22T20:07:48.116Z,70448.50
2022-10-22T20:10:15.690Z,70426.94
2022-10-22T20:12:43.101Z,70413.69
2022-10-22T20:15:10.631Z,70441.38
2022-10-22T20:17:38.180Z,70476.69
2022-10-22T20:20:06.038Z,70417.53
2022-10-22T20:22:33.587Z,70442.50
2022-10-22T20:25:01.050Z,70464.28
2022-10-22T20:27:28.430Z,70431.28
2022-10-22T20:29:56.266Z,70418.94
2022-10-22T20:32:27.047Z,70436.00
2022-10-22T20:34:54.594Z,70410.66
2022-10-22T20:37:21.954Z,70467.50
2022-10-22T20:39:52.370Z,70444.84
2022-10-22T20:42:19.739Z,70425.09
2022-10-22T20:44:47.192Z,70443.38
2022-10-22T20:47:14.598Z,70408.34
2022-10-22T20:49:41.991Z,70460.47
2022-10-22T20:52:09.548Z,70414.31
2022-10-22T20:54:41.383Z,70417.88
2022-10-22T20:57:09.222Z,70399.63
2022-10-22T20:59:36.989Z,70409.63
2022-10-22T21:02:05.570Z,70412.91
2022-10-22T21:04:33.637Z,70418.22
2022-10-22T21:07:01.208Z,70404.44
2022-10-22T21:09:28.612Z,70396.78
2022-10-22T21:11:56.922Z,70390.28
2022-10-22T21:14:24.295Z,70398.00
2022-10-22T21:16:52.229Z,70373.59
2022-10-22T21:19:20.314Z,70379.81
2022-10-22T21:21:47.612Z,70359.81
2022-10-22T21:24:15.416Z,70373.94
2022-10-22T21:26:43.990Z,70345.75
2022-10-22T21:29:13.288Z,70373.13
2022-10-22T21:31:40.982Z,70364.91
2022-10-22T21:34:08.505Z,70319.06
2022-10-22T21:36:35.914Z,70319.34
2022-10-22T21:39:03.553Z,70296.47
2022-10-22T21:41:31.341Z,70276.75
2022-10-22T21:43:59.423Z,70285.59
2022-10-22T21:46:28.242Z,70295.00
2022-10-22T21:48:58.073Z,70308.28
2022-10-22T21:51:25.936Z,70315.63
2022-10-22T21:53:53.781Z,70318.59
2022-10-22T21:56:24.294Z,70284.22
2022-10-22T21:58:52.171Z,70267.16
2022-10-22T22:01:19.880Z,70264.53
2022-10-22T22:03:49.386Z,70202.16
2022-10-22T22:06:21.241Z,70252.81
2022-10-22T22:08:51.049Z,70299.53
2022-10-22T22:11:21.440Z,70261.94
2022-10-22T22:13:49.397Z,70297.22
2022-10-22T22:16:22.475Z,70227.88
2022-10-22T22:18:53.052Z,70274.94
2022-10-22T22:21:22.224Z,70255.00
2022-10-22T22:23:50.851Z,70240.31
2022-10-22T22:26:25.426Z,70223.56
2022-10-22T22:28:56.966Z,70263.22
2022-10-22T22:31:28.409Z,70280.28
2022-10-22T22:33:59.722Z,70238.56
2022-10-22T22:36:27.109Z,70182.38
2022-10-22T22:38:56.010Z,70255.03
2022-10-22T22:41:23.561Z,70231.84
2022-10-22T22:43:51.020Z,70186.34
2022-10-22T22:46:18.416Z,70209.84
2022-10-22T22:48:49.363Z,70250.69
2022-10-22T22:51:16.961Z,70218.66
2022-10-22T22:53:44.387Z,70227.25
2022-10-22T22:56:23.703Z,70208.75
2022-10-22T22:58:51.609Z,70215.25
2022-10-22T23:01:22.987Z,70204.66
2022-10-22T23:03:57.414Z,70252.19
2022-10-22T23:06:27.168Z,70195.84
2022-10-22T23:08:55.441Z,70241.69
2022-10-22T23:11:24.554Z,70180.09
2022-10-22T23:13:54.589Z,70183.63
2022-10-22T23:16:25.064Z,70154.88
2022-10-22T23:18:54.477Z,70180.97
2022-10-22T23:21:29.785Z,70192.72
2022-10-22T23:24:00.681Z,70234.09
2022-10-22T23:26:35.214Z,70178.38
2022-10-22T23:29:13.773Z,70187.78
2022-10-22T23:31:42.674Z,70189.53
2022-10-22T23:34:13.651Z,70197.16
2022-10-22T23:36:41.063Z,70160.19
2022-10-22T23:39:14.267Z,70192.47
2022-10-22T23:41:41.875Z,70210.41
2022-10-22T23:44:10.173Z,70153.72
2022-10-22T23:46:41.173Z,70182.22
2022-10-22T23:49:10.403Z,70184.25
2022-10-22T23:51:38.922Z,70159.06
2022-10-22T23:54:11.178Z,70123.28
2022-10-22T23:56:38.687Z,70112.72
2022-10-22T23:59:06.176Z,70132.06
